Marella Celebration — 9HUI9 — position and weather

sailwx.info

Track history (hours):
 
Tides and Currents Weather Stations Pressure Air Temp Water Temp Dewpoint Dewpoint Depression Visibility Wind Speed Wind Dir Waves Ship Positions

Marella Celebration

Last reported at 2018-Sep-16 17:06 UTC. Time now 2018-Sep-19 01:22 UTC.
Position N 37°51' E 015°55'.

Length 214 m; draft 8 m.

Type: Passenger vessel. MMSI: 249544000.

Date/timePositionNaut miles runAvg speedWind from/ knotsBaromVisibWave heightAir tempDewpointWater temp
2018-Sep-16 17:06N 37°51' E 015°55'117.8
2018-Sep-16 17:03N 37°51' E 015°54'117.7
2018-Sep-16 16:59N 37°51' E 015°53'1016.6
2018-Sep-16 16:22N 37°54' E 015°40'1616.1
2018-Sep-16 15:23N 38°09' E 015°35'3 8.0
2018-Sep-16 15:02N 38°12' E 015°34'0 7.0
2018-Sep-16 15:00N 38°12' E 015°34'0 0.4
2018-Sep-16 14:20N 38°12' E 015°33'0 0.0
2018-Sep-16 13:26N 38°12' E 015°33'0 0.0
2018-Sep-16 13:02N 38°12' E 015°33'0 0.0
2018-Sep-16 12:50N 38°12' E 015°33'0 0.0
2018-Sep-16 12:26N 38°12' E 015°33'0 0.0
2018-Sep-16 12:02N 38°12' E 015°33'0 0.0
2018-Sep-16 11:56N 38°12' E 015°33'0 0.0
2018-Sep-16 11:20N 38°12' E 015°33'0 0.0
2018-Sep-16 10:44N 38°12' E 015°33'0 0.0
2018-Sep-16 10:26N 38°12' E 015°33'0 0.0
2018-Sep-16 10:02N 38°12' E 015°33'0 0.0
2018-Sep-16 09:56N 38°12' E 015°33'0 0.0
2018-Sep-16 09:26N 38°12' E 015°33'0 0.0
2018-Sep-16 08:56N 38°12' E 015°33'0 0.0
2018-Sep-16 08:26N 38°12' E 015°33'0 0.0
2018-Sep-16 08:02N 38°12' E 015°33'0 0.0
2018-Sep-16 07:56N 38°12' E 015°33'0 0.0
2018-Sep-16 07:26N 38°12' E 015°33'0 0.0
2018-Sep-16 06:58N 38°12' E 015°33'0 0.0
2018-Sep-16 06:29N 38°12' E 015°33'0 0.0
2018-Sep-16 06:01N 38°12' E 015°33'0 0.0
2018-Sep-16 06:00N 38°12' E 015°33'0 0.0
2018-Sep-16 05:29N 38°12' E 015°34'1 3.4
2018-Sep-16 05:03N 38°13' E 015°35'1 9.2
2018-Sep-16 04:59N 38°13' E 015°36'611.8
2018-Sep-16 04:26N 38°06' E 015°37'513.9
2018-Sep-16 04:03N 38°01' E 015°36'114.3
2018-Sep-16 03:59N 37°60' E 015°36'1913.3
2018-Sep-16 02:35N 37°41' E 015°36'212.6
2018-Sep-16 02:26N 37°39' E 015°36'612.6
2018-Sep-16 02:00N 37°34' E 015°37'  
2018-Sep-10 21:03N 43°39' E 014°08'1 6.8
2018-Sep-10 20:58N 43°39' E 014°07'3 6.3
2018-Sep-10 20:30N 43°39' E 014°03'3 6.3
2018-Sep-10 20:01N 43°39' E 013°59'15 6.3
2018-Sep-10 17:42N 43°41' E 013°39'1 6.1
2018-Sep-10 17:30N 43°41' E 013°37'3 6.3
2018-Sep-10 17:03N 43°40' E 013°34'0 6.6
2018-Sep-10 17:01N 43°39' E 013°34'3 6.3
2018-Sep-10 16:29N 43°38' E 013°29'21 1.5
2018-Sep-10 02:17N 43°58' E 013°38'310.8
2018-Sep-10 02:03N 43°60' E 013°35'210.9
2018-Sep-10 01:49N 44°01' E 013°32'411.0
2018-Sep-10 01:30N 44°03' E 013°28'511.1
2018-Sep-10 01:03N 44°05' E 013°22'110.9
2018-Sep-10 01:00N 44°06' E 013°21'914.8
2018-Sep-10 00:26N 44°11' E 013°12'718.5
2018-Sep-10 00:03N 44°18' E 013°09'117.6
2018-Sep-10 00:00N 44°19' E 013°09'713.2
2018-Sep-09 23:30N 44°25' E 013°06'512.1
2018-Sep-09 23:03N 44°30' E 013°04'112.4
2018-Sep-09 23:00N 44°31' E 013°03'612.3
2018-Sep-09 22:30N 44°37' E 013°01'612.3
2018-Sep-09 22:03N 44°42' E 012°58'112.1
2018-Sep-09 22:00N 44°42' E 012°58'612.1
2018-Sep-09 21:30N 44°48' E 012°54'512.2
2018-Sep-09 21:03N 44°53' E 012°51'112.2
2018-Sep-09 21:00N 44°53' E 012°51'612.3
2018-Sep-09 20:31N 44°59' E 012°47'612.4
2018-Sep-09 20:03N 45°04' E 012°43'112.4
2018-Sep-09 20:00N 45°05' E 012°43'612.0
2018-Sep-09 19:30N 45°09' E 012°37'511.9
2018-Sep-09 19:03N 45°12' E 012°31'112.3
2018-Sep-09 19:00N 45°13' E 012°31'612.4
2018-Sep-09 18:29N 45°19' E 012°30'511.4
2018-Sep-09 18:03N 45°24' E 012°28'0 9.3
2018-Sep-09 18:00N 45°24' E 012°28'4 7.7
2018-Sep-09 17:30N 45°26' E 012°23'2 4.7
2018-Sep-09 17:03N 45°26' E 012°20'0 5.9
2018-Sep-09 17:00N 45°26' E 012°20'1 0.1
2018-Sep-09 06:02N 45°26' E 012°18'0 0.2
2018-Sep-09 05:58N 45°26' E 012°18'1 3.0
2018-Sep-09 05:31N 45°26' E 012°20'2 4.9
2018-Sep-09 05:04N 45°26' E 012°23'0 7.1
2018-Sep-09 05:01N 45°26' E 012°24'4 8.0
2018-Sep-09 04:30N 45°24' E 012°29'4 9.0
2018-Sep-09 04:01N 45°20' E 012°32'2110.1
2018-Sep-09 01:58N 45°07' E 012°54'510.0
2018-Sep-09 01:30N 45°06' E 013°00'5 9.9
2018-Sep-09 01:00N 45°11' E 013°00'510.7
2018-Sep-09 00:29N 45°17' E 012°59'510.8
2018-Sep-09 00:04N 45°21' E 012°58'110.6
2018-Sep-09 00:01N 45°22' E 012°58'510.0
2018-Sep-08 23:30N 45°25' E 013°04'5 9.9
2018-Sep-08 23:03N 45°28' E 013°09'110.0
2018-Sep-08 22:58N 45°29' E 013°10'510.5
2018-Sep-08 22:30N 45°32' E 013°15'4 8.1
2018-Sep-08 22:03N 45°34' E 013°20'0 6.7
2018-Sep-08 22:01N 45°34' E 013°20'3 6.8
2018-Sep-08 21:31N 45°35' E 013°24'3 6.8
2018-Sep-08 21:03N 45°36' E 013°28'0 6.8
2018-Sep-08 21:00N 45°36' E 013°29'3 6.7
2018-Sep-08 20:30N 45°38' E 013°33'3 6.2
2018-Sep-08 20:03N 45°37' E 013°37'0 6.7
2018-Sep-08 20:00N 45°37' E 013°38'4 7.3
2018-Sep-08 19:31N 45°34' E 013°41'2 4.1
2018-Sep-08 18:59N 45°33' E 013°44'0 0.0
2018-Sep-08 18:28N 45°33' E 013°44'0 0.0
2018-Sep-08 18:01N 45°33' E 013°44'0 0.0
2018-Sep-08 17:55N 45°33' E 013°44'0 0.0
2018-Sep-08 17:28N 45°33' E 013°44'0 0.0
2018-Sep-08 16:49N 45°33' E 013°44'0 0.0
2018-Sep-08 16:22N 45°33' E 013°44'0 0.0
2018-Sep-08 16:01N 45°33' E 013°44'0 0.0
2018-Sep-08 15:58N 45°33' E 013°44'0 0.0
2018-Sep-08 15:23N 45°33' E 013°44'0 0.0
2018-Sep-08 15:03N 45°33' E 013°44'0 0.0
2018-Sep-08 15:00N 45°33' E 013°44'0 0.0
2018-Sep-08 14:29N 45°33' E 013°44'0 0.0
2018-Sep-08 14:00N 45°33' E 013°44'0 0.0
2018-Sep-08 13:30N 45°33' E 013°44'0 0.0
2018-Sep-08 13:00N 45°33' E 013°44'0 0.0
2018-Sep-08 12:23N 45°33' E 013°44'0 0.0
2018-Sep-08 11:58N 45°33' E 013°44'0 0.0
2018-Sep-08 11:15N 45°33' E 013°44'0 0.1
2018-Sep-08 11:03N 45°33' E 013°44'0 0.0
2018-Sep-08 11:00N 45°33' E 013°44'0 0.0
2018-Sep-08 10:30N 45°33' E 013°44'0 0.0
2018-Sep-08 10:01N 45°33' E 013°44'0 0.0
2018-Sep-08 10:00N 45°33' E 013°44'0 0.0
2018-Sep-08 09:28N 45°33' E 013°44'0 0.0
2018-Sep-08 08:59N 45°33' E 013°44'0 0.0
2018-Sep-08 08:15N 45°33' E 013°44'0 0.1
2018-Sep-08 08:03N 45°33' E 013°44'0 0.0
2018-Sep-08 08:00N 45°33' E 013°44'0 0.0
2018-Sep-08 07:28N 45°33' E 013°44'0 0.0
2018-Sep-08 06:52N 45°33' E 013°44'0 0.0
2018-Sep-08 06:24N 45°33' E 013°44'0 0.0
2018-Sep-08 05:57N 45°33' E 013°44'0 0.2
2018-Sep-08 05:30N 45°33' E 013°44'1 2.9
2018-Sep-08 05:03N 45°34' E 013°42'0 7.5
2018-Sep-08 05:00N 45°34' E 013°42'4 9.0
2018-Sep-08 04:30N 45°35' E 013°35'4 8.6
2018-Sep-08 04:04N 45°34' E 013°30'0 8.2
2018-Sep-08 04:00N 45°33' E 013°29'4 8.7
2018-Sep-08 03:31N 45°31' E 013°24'4 8.8
2018-Sep-08 03:02N 45°29' E 013°19'0 8.7
2018-Sep-08 03:00N 45°29' E 013°19'4 8.6
2018-Sep-08 02:31N 45°27' E 013°14'4 7.8
2018-Sep-08 02:03N 45°24' E 013°11'0 8.9
2018-Sep-08 02:01N 45°23' E 013°11'5 9.8
2018-Sep-08 01:31N 45°18' E 013°12'510.1
2018-Sep-08 01:04N 45°14' E 013°13'110.1
2018-Sep-08 01:01N 45°13' E 013°13'815.6
2018-Sep-08 00:30N 45°06' E 013°15'613.5
2018-Sep-08 00:03N 44°60' E 013°18'110.3
2018-Sep-08 00:00N 44°59' E 013°18'510.3
2018-Sep-07 23:30N 44°55' E 013°22'510.9
2018-Sep-07 23:04N 44°51' E 013°26'115.4
2018-Sep-07 23:01N 44°50' E 013°26'611.3
2018-Sep-07 22:30N 44°45' E 013°31'510.1
2018-Sep-07 22:03N 44°42' E 013°34'010.2
2018-Sep-07 22:00N 44°41' E 013°35'510.3
2018-Sep-07 21:30N 44°37' E 013°39'510.2
2018-Sep-07 20:59N 44°32' E 013°43'510.1
2018-Sep-07 20:30N 44°28' E 013°46'510.2
2018-Sep-07 19:59N 44°24' E 013°50'1410.3
2018-Sep-07 18:36N 44°12' E 014°01'  
Track history (hours):
 
Tides and Currents Weather Stations Pressure Air Temp Water Temp Dewpoint Dewpoint Depression Visibility Wind Speed Wind Dir Waves Ship Positions

Marella Celebration

Last reported at 2018-Sep-16 17:06 UTC. Time now 2018-Sep-19 01:22 UTC.
Position N 37°51' E 015°55'.

Length 214 m; draft 8 m.

Type: Passenger vessel. MMSI: 249544000.

Date/timePositionNaut miles runAvg speedWind from/ knotsBaromVisibWave heightAir tempDewpointWater temp
2018-Sep-16 17:06N 37°51' E 015°55'117.8
2018-Sep-16 17:03N 37°51' E 015°54'117.7
2018-Sep-16 16:59N 37°51' E 015°53'1016.6
2018-Sep-16 16:22N 37°54' E 015°40'1616.1
2018-Sep-16 15:23N 38°09' E 015°35'3 8.0
2018-Sep-16 15:02N 38°12' E 015°34'0 7.0
2018-Sep-16 15:00N 38°12' E 015°34'0 0.4
2018-Sep-16 14:20N 38°12' E 015°33'0 0.0
2018-Sep-16 13:26N 38°12' E 015°33'0 0.0
2018-Sep-16 13:02N 38°12' E 015°33'0 0.0
2018-Sep-16 12:50N 38°12' E 015°33'0 0.0
2018-Sep-16 12:26N 38°12' E 015°33'0 0.0
2018-Sep-16 12:02N 38°12' E 015°33'0 0.0
2018-Sep-16 11:56N 38°12' E 015°33'0 0.0
2018-Sep-16 11:20N 38°12' E 015°33'0 0.0
2018-Sep-16 10:44N 38°12' E 015°33'0 0.0
2018-Sep-16 10:26N 38°12' E 015°33'0 0.0
2018-Sep-16 10:02N 38°12' E 015°33'0 0.0
2018-Sep-16 09:56N 38°12' E 015°33'0 0.0
2018-Sep-16 09:26N 38°12' E 015°33'0 0.0
2018-Sep-16 08:56N 38°12' E 015°33'0 0.0
2018-Sep-16 08:26N 38°12' E 015°33'0 0.0
2018-Sep-16 08:02N 38°12' E 015°33'0 0.0
2018-Sep-16 07:56N 38°12' E 015°33'0 0.0
2018-Sep-16 07:26N 38°12' E 015°33'0 0.0
2018-Sep-16 06:58N 38°12' E 015°33'0 0.0
2018-Sep-16 06:29N 38°12' E 015°33'0 0.0
2018-Sep-16 06:01N 38°12' E 015°33'0 0.0
2018-Sep-16 06:00N 38°12' E 015°33'0 0.0
2018-Sep-16 05:29N 38°12' E 015°34'1 3.4
2018-Sep-16 05:03N 38°13' E 015°35'1 9.2
2018-Sep-16 04:59N 38°13' E 015°36'611.8
2018-Sep-16 04:26N 38°06' E 015°37'513.9
2018-Sep-16 04:03N 38°01' E 015°36'114.3
2018-Sep-16 03:59N 37°60' E 015°36'1913.3
2018-Sep-16 02:35N 37°41' E 015°36'212.6
2018-Sep-16 02:26N 37°39' E 015°36'612.6
2018-Sep-16 02:00N 37°34' E 015°37'  
2018-Sep-10 21:03N 43°39' E 014°08'1 6.8
2018-Sep-10 20:58N 43°39' E 014°07'3 6.3
2018-Sep-10 20:30N 43°39' E 014°03'3 6.3
2018-Sep-10 20:01N 43°39' E 013°59'15 6.3
2018-Sep-10 17:42N 43°41' E 013°39'1 6.1
2018-Sep-10 17:30N 43°41' E 013°37'3 6.3
2018-Sep-10 17:03N 43°40' E 013°34'0 6.6
2018-Sep-10 17:01N 43°39' E 013°34'3 6.3
2018-Sep-10 16:29N 43°38' E 013°29'21 1.5
2018-Sep-10 02:17N 43°58' E 013°38'310.8
2018-Sep-10 02:03N 43°60' E 013°35'210.9
2018-Sep-10 01:49N 44°01' E 013°32'411.0
2018-Sep-10 01:30N 44°03' E 013°28'511.1
2018-Sep-10 01:03N 44°05' E 013°22'110.9
2018-Sep-10 01:00N 44°06' E 013°21'914.8
2018-Sep-10 00:26N 44°11' E 013°12'718.5
2018-Sep-10 00:03N 44°18' E 013°09'117.6
2018-Sep-10 00:00N 44°19' E 013°09'713.2
2018-Sep-09 23:30N 44°25' E 013°06'512.1
2018-Sep-09 23:03N 44°30' E 013°04'112.4
2018-Sep-09 23:00N 44°31' E 013°03'612.3
2018-Sep-09 22:30N 44°37' E 013°01'612.3
2018-Sep-09 22:03N 44°42' E 012°58'112.1
2018-Sep-09 22:00N 44°42' E 012°58'612.1
2018-Sep-09 21:30N 44°48' E 012°54'512.2
2018-Sep-09 21:03N 44°53' E 012°51'112.2
2018-Sep-09 21:00N 44°53' E 012°51'612.3
2018-Sep-09 20:31N 44°59' E 012°47'612.4
2018-Sep-09 20:03N 45°04' E 012°43'112.4
2018-Sep-09 20:00N 45°05' E 012°43'612.0
2018-Sep-09 19:30N 45°09' E 012°37'511.9
2018-Sep-09 19:03N 45°12' E 012°31'112.3
2018-Sep-09 19:00N 45°13' E 012°31'612.4
2018-Sep-09 18:29N 45°19' E 012°30'511.4
2018-Sep-09 18:03N 45°24' E 012°28'0 9.3
2018-Sep-09 18:00N 45°24' E 012°28'4 7.7
2018-Sep-09 17:30N 45°26' E 012°23'2 4.7
2018-Sep-09 17:03N 45°26' E 012°20'0 5.9
2018-Sep-09 17:00N 45°26' E 012°20'1 0.1
2018-Sep-09 06:02N 45°26' E 012°18'0 0.2
2018-Sep-09 05:58N 45°26' E 012°18'1 3.0
2018-Sep-09 05:31N 45°26' E 012°20'2 4.9
2018-Sep-09 05:04N 45°26' E 012°23'0 7.1
2018-Sep-09 05:01N 45°26' E 012°24'4 8.0
2018-Sep-09 04:30N 45°24' E 012°29'4 9.0
2018-Sep-09 04:01N 45°20' E 012°32'2110.1
2018-Sep-09 01:58N 45°07' E 012°54'510.0
2018-Sep-09 01:30N 45°06' E 013°00'5 9.9
2018-Sep-09 01:00N 45°11' E 013°00'510.7
2018-Sep-09 00:29N 45°17' E 012°59'510.8
2018-Sep-09 00:04N 45°21' E 012°58'110.6
2018-Sep-09 00:01N 45°22' E 012°58'510.0
2018-Sep-08 23:30N 45°25' E 013°04'5 9.9
2018-Sep-08 23:03N 45°28' E 013°09'110.0
2018-Sep-08 22:58N 45°29' E 013°10'510.5
2018-Sep-08 22:30N 45°32' E 013°15'4 8.1
2018-Sep-08 22:03N 45°34' E 013°20'0 6.7
2018-Sep-08 22:01N 45°34' E 013°20'3 6.8
2018-Sep-08 21:31N 45°35' E 013°24'3 6.8
2018-Sep-08 21:03N 45°36' E 013°28'0 6.8
2018-Sep-08 21:00N 45°36' E 013°29'3 6.7
2018-Sep-08 20:30N 45°38' E 013°33'3 6.2
2018-Sep-08 20:03N 45°37' E 013°37'0 6.7
2018-Sep-08 20:00N 45°37' E 013°38'4 7.3
2018-Sep-08 19:31N 45°34' E 013°41'2 4.1
2018-Sep-08 18:59N 45°33' E 013°44'0 0.0
2018-Sep-08 18:28N 45°33' E 013°44'0 0.0
2018-Sep-08 18:01N 45°33' E 013°44'0 0.0
2018-Sep-08 17:55N 45°33' E 013°44'0 0.0
2018-Sep-08 17:28N 45°33' E 013°44'0 0.0
2018-Sep-08 16:49N 45°33' E 013°44'0 0.0
2018-Sep-08 16:22N 45°33' E 013°44'0 0.0
2018-Sep-08 16:01N 45°33' E 013°44'0 0.0
2018-Sep-08 15:58N 45°33' E 013°44'0 0.0
2018-Sep-08 15:23N 45°33' E 013°44'0 0.0
2018-Sep-08 15:03N 45°33' E 013°44'0 0.0
2018-Sep-08 15:00N 45°33' E 013°44'0 0.0
2018-Sep-08 14:29N 45°33' E 013°44'0 0.0
2018-Sep-08 14:00N 45°33' E 013°44'0 0.0
2018-Sep-08 13:30N 45°33' E 013°44'0 0.0
2018-Sep-08 13:00N 45°33' E 013°44'0 0.0
2018-Sep-08 12:23N 45°33' E 013°44'0 0.0
2018-Sep-08 11:58N 45°33' E 013°44'0 0.0
2018-Sep-08 11:15N 45°33' E 013°44'0 0.1
2018-Sep-08 11:03N 45°33' E 013°44'0 0.0
2018-Sep-08 11:00N 45°33' E 013°44'0 0.0
2018-Sep-08 10:30N 45°33' E 013°44'0 0.0
2018-Sep-08 10:01N 45°33' E 013°44'0 0.0
2018-Sep-08 10:00N 45°33' E 013°44'0 0.0
2018-Sep-08 09:28N 45°33' E 013°44'0 0.0
2018-Sep-08 08:59N 45°33' E 013°44'0 0.0
2018-Sep-08 08:15N 45°33' E 013°44'0 0.1
2018-Sep-08 08:03N 45°33' E 013°44'0 0.0
2018-Sep-08 08:00N 45°33' E 013°44'0 0.0
2018-Sep-08 07:28N 45°33' E 013°44'0 0.0
2018-Sep-08 06:52N 45°33' E 013°44'0 0.0
2018-Sep-08 06:24N 45°33' E 013°44'0 0.0
2018-Sep-08 05:57N 45°33' E 013°44'0 0.2
2018-Sep-08 05:30N 45°33' E 013°44'1 2.9
2018-Sep-08 05:03N 45°34' E 013°42'0 7.5
2018-Sep-08 05:00N 45°34' E 013°42'4 9.0
2018-Sep-08 04:30N 45°35' E 013°35'4 8.6
2018-Sep-08 04:04N 45°34' E 013°30'0 8.2
2018-Sep-08 04:00N 45°33' E 013°29'4 8.7
2018-Sep-08 03:31N 45°31' E 013°24'4 8.8
2018-Sep-08 03:02N 45°29' E 013°19'0 8.7
2018-Sep-08 03:00N 45°29' E 013°19'4 8.6
2018-Sep-08 02:31N 45°27' E 013°14'4 7.8
2018-Sep-08 02:03N 45°24' E 013°11'0 8.9
2018-Sep-08 02:01N 45°23' E 013°11'5 9.8
2018-Sep-08 01:31N 45°18' E 013°12'510.1
2018-Sep-08 01:04N 45°14' E 013°13'110.1
2018-Sep-08 01:01N 45°13' E 013°13'815.6
2018-Sep-08 00:30N 45°06' E 013°15'613.5
2018-Sep-08 00:03N 44°60' E 013°18'110.3
2018-Sep-08 00:00N 44°59' E 013°18'510.3
2018-Sep-07 23:30N 44°55' E 013°22'510.9
2018-Sep-07 23:04N 44°51' E 013°26'115.4
2018-Sep-07 23:01N 44°50' E 013°26'611.3
2018-Sep-07 22:30N 44°45' E 013°31'510.1
2018-Sep-07 22:03N 44°42' E 013°34'010.2
2018-Sep-07 22:00N 44°41' E 013°35'510.3
2018-Sep-07 21:30N 44°37' E 013°39'510.2
2018-Sep-07 20:59N 44°32' E 013°43'510.1
2018-Sep-07 20:30N 44°28' E 013°46'510.2
2018-Sep-07 19:59N 44°24' E 013°50'1410.3
2018-Sep-07 18:36N 44°12' E 014°01'  

Dump ship's entire track history